Weather at Schaffe - EBDT


metar: EBDT 240225Z VRB01KT 9999 BKN120 10/08 Q1019 BLU

53 minuten geleden, om 02:25 UTC, de wind blies met windsnelheden van 0.5 meter per seconde(1.2 mijl per uur) vanuit variable richtingen nabij Schaffe. De temperatuur was 10 °C (50 °F), en de barometerdruk was 1,019 hPa (30.09 inHg). De relatieve vochtigheid was 87.4%. er was gebroken bewolking op een hoogte van 3658 meter (12000 voet). De zichtbaarheid was >10 kilometer (>6.2 mijl).

temperature image   windir image sky image 

Last 24 hour graph Schaffe - EBDT